Time;durP1;ratioP1;P1;durP2;ratioP2;P2;SDS_P1;SDS_P2;PMS_P1;PMS_P2;Temp;Humidity;BMP_temperature;BMP_pressure;BME280_temperature;BME280_humidity;BME280_pressure;Samples;Min_cycle;Max_cycle;Signal;HPM_P1;HPM_P2
2022/02/05 00:03:39;;;;;;;2.38;0.80;;;;;;;2.61;100.00;97960.91;10397473;28;20063;-56
2022/02/05 00:08:55;;;;;;;2.72;0.82;;;;;;;2.60;100.00;97969.84;10395245;28;20056;-56
2022/02/05 00:14:25;;;;;;;1.27;0.60;;;;;;;2.59;100.00;97968.97;10397274;28;20191;-54
2022/02/05 00:40:58;;;;;;;2.90;0.90;;;;;;;2.34;100.00;98022.41;10398154;28;20124;-54
2022/02/05 00:46:02;;;;;;;3.38;1.10;;;;;;;2.36;100.00;98025.78;10400897;28;20049;-60
2022/02/05 00:51:12;;;;;;;4.43;1.20;;;;;;;2.41;100.00;98013.81;10401467;28;20052;-51
2022/02/05 00:56:22;;;;;;;2.72;0.95;;;;;;;2.35;100.00;98026.78;10397683;28;20052;-50
2022/02/05 01:01:25;;;;;;;4.05;0.90;;;;;;;2.30;100.00;98043.06;10399837;28;20394;-54
2022/02/05 01:06:28;;;;;;;4.13;0.88;;;;;;;2.29;100.00;98042.22;10395551;28;20417;-53
2022/02/05 01:11:33;;;;;;;4.13;1.05;;;;;;;2.40;100.00;98057.34;10397095;28;20561;-55
2022/02/05 01:16:48;;;;;;;2.92;0.82;;;;;;;2.36;100.00;98042.59;10395251;28;20080;-52
2022/02/05 01:21:55;;;;;;;2.22;0.82;;;;;;;2.33;100.00;98056.13;10393975;28;20470;-56
2022/02/05 01:27:04;;;;;;;3.13;0.90;;;;;;;2.23;100.00;98060.44;10396509;28;20046;-51
2022/02/05 01:32:14;;;;;;;6.15;1.13;;;;;;;2.18;100.00;98057.28;10395135;28;20069;-53
2022/02/05 01:53:28;;;;;;;3.27;1.00;;;;;;;2.11;100.00;98086.16;10395072;28;20524;-53
2022/02/05 01:58:51;;;;;;;3.83;0.95;;;;;;;2.13;100.00;98074.44;10395720;28;20116;-51
2022/02/05 02:14:45;;;;;;;3.88;1.13;;;;;;;1.99;100.00;98093.22;10390141;28;20531;-57
2022/02/05 02:20:03;;;;;;;4.00;1.00;;;;;;;2.01;100.00;98086.00;10394122;28;20046;-55
2022/02/05 02:25:18;;;;;;;4.97;1.30;;;;;;;2.00;100.00;98095.75;10393281;28;20053;-56
2022/02/05 02:30:25;;;;;;;4.20;1.10;;;;;;;1.99;100.00;98103.84;10391385;28;20049;-54
2022/02/05 02:35:30;;;;;;;3.28;1.20;;;;;;;1.93;100.00;98118.44;10392919;28;20428;-51
2022/02/05 02:40:42;;;;;;;3.72;1.20;;;;;;;1.96;100.00;98112.06;10395550;28;20041;-54
2022/02/05 02:45:47;;;;;;;5.20;1.33;;;;;;;1.87;100.00;98110.09;10388974;28;20152;-57
2022/02/05 02:56:32;;;;;;;4.68;1.33;;;;;;;1.89;100.00;98132.06;10393135;28;20057;-54
2022/02/05 03:01:41;;;;;;;4.38;1.40;;;;;;;1.84;100.00;98133.25;10392063;28;20373;-51
2022/02/05 03:06:44;;;;;;;3.63;1.30;;;;;;;1.80;100.00;98142.44;10392591;28;20053;-54
2022/02/05 03:11:51;;;;;;;4.40;1.33;;;;;;;1.77;100.00;98155.94;10394009;28;20124;-52
2022/02/05 03:17:02;;;;;;;3.30;1.02;;;;;;;1.77;100.00;98158.59;10389318;28;20053;-61
2022/02/05 03:22:05;;;;;;;3.13;1.17;;;;;;;1.66;100.00;98174.44;10393832;28;20053;-54
2022/02/05 03:27:12;;;;;;;4.30;1.20;;;;;;;1.69;100.00;98177.72;10393640;28;20045;-59
2022/02/05 03:32:16;;;;;;;3.53;1.20;;;;;;;1.68;100.00;98185.81;10392229;28;20452;-53
2022/02/05 03:37:20;;;;;;;5.07;1.30;;;;;;;1.73;100.00;98193.44;10390932;28;20054;-59
2022/02/05 03:42:26;;;;;;;2.80;1.30;;;;;;;1.72;100.00;98199.72;10391170;28;20484;-53
2022/02/05 03:47:33;;;;;;;5.60;1.35;;;;;;;1.65;100.00;98201.97;10396980;28;20111;-55
2022/02/05 03:52:37;;;;;;;5.60;1.50;;;;;;;1.62;100.00;98200.38;10400614;28;20042;-53
2022/02/05 03:57:43;;;;;;;3.17;1.27;;;;;;;1.62;100.00;98199.53;10398352;28;20064;-55
2022/02/05 04:02:46;;;;;;;4.50;1.30;;;;;;;1.59;100.00;98210.38;10399319;28;20049;-53
2022/02/05 04:07:52;;;;;;;3.35;1.20;;;;;;;1.50;100.00;98225.16;10398354;28;20065;-59
2022/02/05 04:18:18;;;;;;;5.63;1.55;;;;;;;1.65;100.00;98231.19;10398262;28;20045;-58
2022/02/05 04:23:21;;;;;;;2.65;1.13;;;;;;;1.70;100.00;98234.38;10395995;28;20049;-53
2022/02/05 04:28:31;;;;;;;3.42;1.30;;;;;;;1.63;100.00;98236.59;10400508;28;20124;-52
2022/02/05 04:33:34;;;;;;;5.68;1.80;;;;;;;1.76;100.00;98236.56;10398213;28;20529;-58
2022/02/05 04:38:39;;;;;;;3.55;1.30;;;;;;;1.88;100.00;98237.50;10398701;28;20045;-55
2022/02/05 04:49:25;;;;;;;1.70;1.02;;;;;;;1.75;100.00;98239.34;10393987;28;20513;-60
2022/02/05 04:54:51;;;;;;;3.47;1.40;;;;;;;1.75;100.00;98245.50;10397264;28;20219;-55
2022/02/05 05:06:04;;;;;;;4.80;1.27;;;;;;;1.84;100.00;98252.78;10367101;23;20454;-78
2022/02/05 05:11:35;;;;;;;4.45;1.25;;;;;;;1.92;100.00;98251.41;10317122;28;20045;-78
2022/02/05 05:22:04;;;;;;;6.20;1.30;;;;;;;1.82;100.00;98257.34;10315996;28;20076;-76
2022/02/05 05:27:09;;;;;;;4.25;1.25;;;;;;;1.89;100.00;98255.13;10326113;28;20052;-76
2022/02/05 05:32:15;;;;;;;6.95;1.10;;;;;;;1.92;100.00;98259.38;10340920;28;20471;-77
2022/02/05 05:37:20;;;;;;;3.17;1.23;;;;;;;1.99;100.00;98261.50;10316983;28;20591;-75
2022/02/05 05:42:34;;;;;;;4.25;1.20;;;;;;;1.99;100.00;98260.63;10318203;28;20153;-77
2022/02/05 05:47:50;;;;;;;3.80;1.27;;;;;;;2.01;100.00;98274.66;10318587;28;20129;-80
2022/02/05 05:52:58;;;;;;;4.80;1.30;;;;;;;1.92;100.00;98297.41;10330381;28;20056;-77
2022/02/05 05:58:02;;;;;;;4.55;1.30;;;;;;;2.08;100.00;98294.50;10332993;28;20057;-75
2022/02/05 06:03:07;;;;;;;5.22;1.30;;;;;;;2.16;100.00;98296.59;10324235;28;20055;-77
2022/02/05 06:08:19;;;;;;;5.15;1.40;;;;;;;2.17;100.00;98310.75;10344464;28;20069;-79
2022/02/05 06:13:23;;;;;;;4.25;1.10;;;;;;;2.20;100.00;98313.16;10346018;28;20097;-79
2022/02/05 06:18:27;;;;;;;4.32;1.23;;;;;;;2.34;100.00;98310.38;10339677;28;20046;-78
2022/02/05 06:23:31;;;;;;;4.00;1.17;;;;;;;2.39;100.00;98340.13;10342964;28;20046;-78
2022/02/05 06:28:34;;;;;;;4.10;1.20;;;;;;;2.47;100.00;98339.56;10325987;28;20419;-78
2022/02/05 06:33:39;;;;;;;4.35;1.30;;;;;;;2.52;100.00;98350.72;10314766;28;20060;-80
2022/02/05 06:38:45;;;;;;;5.20;1.30;;;;;;;2.52;100.00;98350.72;10348020;28;20105;-79
2022/02/05 06:43:51;;;;;;;3.75;1.30;;;;;;;2.60;100.00;98348.34;10343447;28;20049;-77
2022/02/05 06:48:59;;;;;;;4.80;1.20;;;;;;;2.60;100.00;98382.91;10320694;28;20046;-77
2022/02/05 06:54:02;;;;;;;4.45;1.30;;;;;;;2.63;100.00;98379.19;10326776;28;20053;-78
2022/02/05 06:59:05;;;;;;;4.50;1.30;;;;;;;2.66;100.00;98389.59;10324700;28;20054;-74
2022/02/05 07:04:10;;;;;;;5.20;1.40;;;;;;;2.66;100.00;98408.22;10329747;23;20057;-62
2022/02/05 07:09:14;;;;;;;3.97;1.30;;;;;;;2.66;100.00;98426.84;10314490;28;20471;-64
2022/02/05 07:14:19;;;;;;;5.57;1.40;;;;;;;2.66;100.00;98436.63;10319062;28;20050;-63
2022/02/05 07:19:33;;;;;;;5.47;1.40;;;;;;;2.60;100.00;98433.44;10321466;28;20122;-67
2022/02/05 07:24:54;;;;;;;4.63;1.63;;;;;;;2.61;100.00;98444.94;10336290;28;20061;-62
2022/02/05 07:29:57;;;;;;;4.93;1.80;;;;;;;2.60;100.00;98457.38;10334243;28;20422;-62
2022/02/05 07:35:22;;;;;;;5.22;1.45;;;;;;;2.67;100.00;98452.47;10335270;28;20115;-64
2022/02/05 07:40:26;;;;;;;5.18;1.50;;;;;;;2.65;100.00;98473.00;10334761;28;20584;-63
2022/02/05 07:45:31;;;;;;;4.38;1.80;;;;;;;2.63;100.00;98459.00;10332890;28;20107;-63
2022/02/05 07:50:37;;;;;;;5.00;1.65;;;;;;;2.67;100.00;98468.44;10337243;28;20050;-63
2022/02/05 07:55:41;;;;;;;3.80;1.45;;;;;;;2.66;100.00;98461.41;10340990;28;20049;-63
2022/02/05 08:00:47;;;;;;;4.50;1.40;;;;;;;2.68;100.00;98462.16;10339508;28;20133;-61
2022/02/05 08:05:53;;;;;;;4.85;1.38;;;;;;;2.69;100.00;98474.50;10339794;28;20052;-65
2022/02/05 08:11:01;;;;;;;4.25;1.40;;;;;;;2.72;100.00;98476.94;10343507;28;20145;-62
2022/02/05 08:16:22;;;;;;;3.97;1.30;;;;;;;2.74;100.00;98498.97;10342777;28;20045;-62
2022/02/05 08:21:27;;;;;;;5.10;1.42;;;;;;;2.80;100.00;98480.84;10345845;28;20043;-63
2022/02/05 08:26:31;;;;;;;4.35;1.33;;;;;;;2.80;100.00;98491.50;10338919;28;20038;-61
2022/02/05 08:31:36;;;;;;;7.80;1.65;;;;;;;2.82;100.00;98508.22;10348887;28;20073;-62
2022/02/05 08:36:45;;;;;;;6.03;1.60;;;;;;;3.01;100.00;98513.06;10348487;28;20154;-61
2022/02/05 08:41:49;;;;;;;4.47;1.40;;;;;;;3.20;100.00;98528.53;10341893;28;20300;-62
2022/02/05 08:46:55;;;;;;;5.13;1.20;;;;;;;3.33;100.00;98529.34;10354320;28;20074;-62
2022/02/05 08:52:08;;;;;;;6.65;1.27;;;;;;;3.49;100.00;98520.22;10382573;28;20036;-60
2022/02/05 08:57:12;;;;;;;4.30;1.30;;;;;;;3.66;100.00;98519.81;10331214;28;20442;-61
2022/02/05 09:02:21;;;;;;;5.68;1.27;;;;;;;3.82;100.00;98527.50;10323665;28;20514;-62
2022/02/05 09:07:25;;;;;;;5.18;1.30;;;;;;;3.89;100.00;98508.38;10322794;28;20521;-62
2022/02/05 09:12:45;;;;;;;7.00;1.58;;;;;;;4.12;100.00;98519.94;10327465;28;20125;-62
2022/02/05 09:17:49;;;;;;;3.47;1.20;;;;;;;4.03;100.00;98524.16;10324465;28;20082;-62
2022/02/05 09:22:54;;;;;;;4.25;1.40;;;;;;;3.93;100.00;98510.72;10333906;28;20045;-62
2022/02/05 09:27:57;;;;;;;3.92;1.25;;;;;;;3.80;100.00;98509.94;10330400;28;20355;-62
2022/02/05 09:33:01;;;;;;;4.03;1.30;;;;;;;3.95;100.00;98511.41;10333391;28;20514;-62
2022/02/05 09:38:05;;;;;;;5.00;1.38;;;;;;;4.06;100.00;98523.94;10333803;28;20888;-61
2022/02/05 09:43:08;;;;;;;4.70;1.20;;;;;;;4.14;100.00;98539.34;10335955;28;20418;-60
2022/02/05 09:48:12;;;;;;;4.90;1.60;;;;;;;4.20;100.00;98588.69;10332083;28;20070;-62
2022/02/05 09:53:19;;;;;;;5.75;1.30;;;;;;;4.25;100.00;98555.38;10339801;28;20108;-63
2022/02/05 09:58:23;;;;;;;5.15;1.40;;;;;;;4.15;100.00;98571.22;10333371;28;20057;-64
2022/02/05 10:03:28;;;;;;;4.65;1.10;;;;;;;4.10;100.00;98580.53;10341259;28;20130;-63
2022/02/05 10:08:35;;;;;;;5.05;1.23;;;;;;;4.19;100.00;98581.66;10340862;28;20053;-63
2022/02/05 10:13:41;;;;;;;6.50;1.40;;;;;;;4.38;100.00;98568.59;10342714;28;20242;-63
2022/02/05 10:18:44;;;;;;;3.75;1.20;;;;;;;4.27;100.00;98569.44;10343085;28;20041;-61
2022/02/05 10:23:58;;;;;;;4.13;1.20;;;;;;;4.23;100.00;98577.81;10337134;28;20042;-63
2022/02/05 10:29:03;;;;;;;4.88;1.13;;;;;;;4.21;100.00;98567.25;10335718;28;20481;-63
2022/02/05 10:34:13;;;;;;;2.70;0.90;;;;;;;4.22;100.00;98582.28;10343170;28;20125;-62
2022/02/05 10:39:29;;;;;;;3.75;1.30;;;;;;;4.19;100.00;98571.84;10343543;28;20414;-63
2022/02/05 10:44:33;;;;;;;4.68;1.10;;;;;;;4.17;100.00;98608.47;10334063;28;20048;-64
2022/02/05 10:49:43;;;;;;;3.63;1.15;;;;;;;4.16;100.00;98577.44;10325703;28;20399;-62
2022/02/05 10:54:58;;;;;;;5.10;1.10;;;;;;;4.15;100.00;98570.38;10316939;28;20483;-58
2022/02/05 11:05:36;;;;;;;3.42;0.95;;;;;;;4.23;100.00;98557.31;10324336;28;20136;-60
2022/02/05 11:21:24;;;;;;;4.65;1.20;;;;;;;4.14;100.00;98574.03;10323529;28;20054;-60
2022/02/05 11:26:31;;;;;;;5.68;1.20;;;;;;;4.20;100.00;98565.53;10326714;28;20049;-59
2022/02/05 11:31:37;;;;;;;2.40;0.80;;;;;;;4.20;100.00;98565.53;10331480;28;20042;-61
2022/02/05 11:36:41;;;;;;;2.75;1.00;;;;;;;4.45;100.00;98555.66;10330928;28;20050;-57
2022/02/05 11:41:45;;;;;;;3.45;0.95;;;;;;;4.70;100.00;98564.41;10340532;28;20073;-58
2022/02/05 11:47:22;;;;;;;3.15;1.00;;;;;;;4.92;100.00;98569.75;10337910;28;20566;-59
2022/02/05 11:53:08;;;;;;;2.60;0.70;;;;;;;4.96;100.00;98561.50;10332883;28;20059;-62
2022/02/05 11:58:16;;;;;;;2.58;0.70;;;;;;;4.99;100.00;98561.28;10329926;28;20414;-58
2022/02/05 12:03:32;;;;;;;3.10;1.00;;;;;;;5.06;100.00;98576.66;10335435;28;20108;-57
2022/02/05 12:08:39;;;;;;;1.83;0.70;;;;;;;5.36;100.00;98568.97;10341899;28;20046;-61
2022/02/05 12:13:44;;;;;;;2.03;0.70;;;;;;;5.15;100.00;98564.38;10337257;28;20062;-61
2022/02/05 12:19:12;;;;;;;3.88;1.00;;;;;;;5.20;100.00;98570.22;10334305;28;20088;-57
2022/02/05 12:29:37;;;;;;;3.92;0.90;;;;;;;4.91;100.00;98575.22;10334067;28;20068;-60
2022/02/05 12:34:40;;;;;;;3.75;1.00;;;;;;;4.87;100.00;98576.44;10324169;28;20118;-63
2022/02/05 12:39:44;;;;;;;1.45;0.90;;;;;;;4.94;100.00;98578.50;10320776;28;20046;-63
2022/02/05 12:44:50;;;;;;;4.78;0.93;;;;;;;4.98;100.00;98559.56;10328053;28;20042;-60
2022/02/05 12:50:00;;;;;;;1.73;0.77;;;;;;;4.83;100.00;98570.47;10324483;28;20058;-61
2022/02/05 12:55:13;;;;;;;1.98;0.80;;;;;;;5.12;100.00;98553.13;10328561;28;20045;-62
2022/02/05 13:00:20;;;;;;;2.78;0.70;;;;;;;4.99;100.00;98554.09;10331699;28;20053;-63
2022/02/05 13:05:32;;;;;;;2.42;0.60;;;;;;;4.82;100.00;98550.09;10337479;28;20414;-62
2022/02/05 13:10:45;;;;;;;1.67;0.77;;;;;;;4.81;100.00;98555.56;10332426;28;20041;-60
2022/02/05 13:15:54;;;;;;;1.67;0.68;;;;;;;4.76;100.00;98574.63;10342202;28;20045;-62
2022/02/05 13:26:24;;;;;;;2.08;0.60;;;;;;;4.62;100.00;98560.53;10336669;28;20704;-62
2022/02/05 13:37:01;;;;;;;3.30;0.90;;;;;;;4.63;100.00;98556.91;10345755;28;20054;-63
2022/02/05 13:42:10;;;;;;;2.38;1.13;;;;;;;4.54;100.00;98567.44;10344424;28;20077;-61
2022/02/05 13:47:20;;;;;;;1.50;0.75;;;;;;;4.53;100.00;98563.91;10346378;28;20473;-63
2022/02/05 13:52:24;;;;;;;1.85;0.80;;;;;;;4.57;100.00;98564.53;10338835;28;20124;-62
2022/02/05 13:57:30;;;;;;;1.75;0.70;;;;;;;4.62;100.00;98570.34;10345899;28;20053;-61
2022/02/05 14:02:38;;;;;;;3.65;0.90;;;;;;;4.59;100.00;98574.09;10332049;28;20056;-60
2022/02/05 14:07:43;;;;;;;3.20;0.98;;;;;;;4.60;100.00;98565.13;10334306;28;20047;-61
2022/02/05 14:12:52;;;;;;;3.40;0.90;;;;;;;4.51;100.00;98565.00;10343089;28;20523;-62
2022/02/05 14:18:07;;;;;;;3.53;1.02;;;;;;;4.47;100.00;98577.72;10343556;28;20124;-62
2022/02/05 14:23:13;;;;;;;3.58;1.10;;;;;;;4.44;100.00;98569.94;10327540;28;20054;-60
2022/02/05 14:28:26;;;;;;;2.75;0.90;;;;;;;4.41;100.00;98567.53;10326075;28;20582;-62
2022/02/05 14:33:41;;;;;;;3.40;1.00;;;;;;;4.39;100.00;98577.47;10332852;28;20141;-62
2022/02/05 14:44:09;;;;;;;4.13;1.20;;;;;;;4.30;100.00;98579.84;10328867;28;20050;-62
2022/02/05 14:49:14;;;;;;;3.53;0.93;;;;;;;4.28;100.00;98583.63;10335715;28;20041;-61
2022/02/05 14:54:21;;;;;;;3.55;1.20;;;;;;;4.21;100.00;98575.25;10334366;28;20537;-61
2022/02/05 14:59:27;;;;;;;2.53;0.82;;;;;;;4.24;100.00;98575.00;10331353;28;20138;-62
2022/02/05 15:04:32;;;;;;;3.80;1.20;;;;;;;4.25;100.00;98562.50;10331094;28;20112;-62
2022/02/05 15:09:36;;;;;;;2.25;0.82;;;;;;;4.20;100.00;98573.53;10326271;28;20058;-62
2022/02/05 15:14:39;;;;;;;2.88;1.05;;;;;;;4.19;100.00;98571.84;10333235;28;20042;-62
2022/02/05 15:19:43;;;;;;;4.55;1.00;;;;;;;4.21;100.00;98553.06;10332044;28;20037;-62
2022/02/05 15:24:46;;;;;;;3.95;1.30;;;;;;;4.20;100.00;98549.53;10333873;28;20057;-62
2022/02/05 15:29:49;;;;;;;3.08;1.00;;;;;;;4.16;100.00;98572.09;10335736;28;20445;-61
2022/02/05 15:34:57;;;;;;;2.45;0.93;;;;;;;4.13;100.00;98561.66;10335335;28;20041;-60
2022/02/05 15:40:16;;;;;;;2.28;0.90;;;;;;;4.09;100.00;98574.38;10337717;28;20077;-62
2022/02/05 15:45:19;;;;;;;3.80;0.82;;;;;;;4.03;100.00;98560.66;10346417;28;20045;-62
2022/02/05 15:50:23;;;;;;;4.60;0.95;;;;;;;4.05;100.00;98561.41;10344838;28;20414;-62
2022/02/05 15:55:28;;;;;;;3.65;1.20;;;;;;;4.01;100.00;98558.09;10346991;28;20046;-62
2022/02/05 16:00:34;;;;;;;5.70;1.42;;;;;;;3.96;100.00;98550.44;10358235;28;20042;-61
2022/02/05 16:05:38;;;;;;;3.03;0.93;;;;;;;3.98;100.00;98553.84;10351945;28;20034;-61
2022/02/05 16:10:42;;;;;;;2.85;1.10;;;;;;;3.91;100.00;98551.75;10339285;28;20052;-60
2022/02/05 16:15:45;;;;;;;4.00;1.20;;;;;;;3.83;100.00;98552.31;10332789;28;20035;-59
2022/02/05 16:20:49;;;;;;;3.38;1.13;;;;;;;3.75;100.00;98560.06;10321771;28;20537;-60
2022/02/05 16:25:52;;;;;;;2.15;1.00;;;;;;;3.62;100.00;98558.31;10340167;28;20045;-62
2022/02/05 16:30:58;;;;;;;4.28;1.10;;;;;;;3.57;100.00;98546.28;10332602;28;20120;-62
2022/02/05 16:36:08;;;;;;;2.17;1.00;;;;;;;3.55;100.00;98557.06;10339129;28;20537;-61
2022/02/05 16:41:11;;;;;;;2.42;1.00;;;;;;;3.50;100.00;98557.41;10332925;28;20470;-60
2022/02/05 16:46:20;;;;;;;3.80;1.05;;;;;;;3.44;100.00;98559.66;10335926;28;20042;-61
2022/02/05 16:51:27;;;;;;;3.47;0.90;;;;;;;3.46;100.00;98549.75;10341928;28;20786;-62
2022/02/05 16:56:32;;;;;;;3.47;1.05;;;;;;;3.45;100.00;98569.38;10340349;28;20537;-62
2022/02/05 17:01:36;;;;;;;3.17;1.10;;;;;;;3.38;100.00;98548.50;10351848;28;20062;-59
2022/02/05 17:06:40;;;;;;;4.25;1.13;;;;;;;3.35;100.00;98545.22;10390756;28;20030;-61
2022/02/05 17:11:45;;;;;;;2.33;0.98;;;;;;;3.31;100.00;98554.38;10378960;28;20407;-62
2022/02/05 17:16:51;;;;;;;2.30;1.02;;;;;;;3.31;100.00;98549.91;10338315;28;20167;-61
2022/02/05 17:21:57;;;;;;;2.90;1.20;;;;;;;3.24;100.00;98551.31;10341504;28;20046;-62
2022/02/05 17:27:03;;;;;;;2.80;1.30;;;;;;;3.21;100.00;98546.22;10340091;28;20112;-62
2022/02/05 17:32:07;;;;;;;5.25;1.38;;;;;;;3.22;100.00;98539.94;10339902;28;20431;-61
2022/02/05 17:37:13;;;;;;;4.72;1.50;;;;;;;3.18;100.00;98530.47;10342128;28;20054;-60
2022/02/05 17:42:16;;;;;;;2.58;1.25;;;;;;;3.17;100.00;98534.09;10347745;28;20286;-60
2022/02/05 17:47:20;;;;;;;3.10;1.20;;;;;;;3.16;100.00;98522.59;10331913;28;20053;-60
2022/02/05 17:52:25;;;;;;;3.90;1.17;;;;;;;3.14;100.00;98526.31;10334918;28;20046;-59
2022/02/05 17:57:29;;;;;;;2.70;1.10;;;;;;;3.04;100.00;98519.00;10325397;28;20046;-61
2022/02/05 18:02:33;;;;;;;3.90;1.30;;;;;;;3.03;100.00;98511.16;10344810;28;20053;-63
2022/02/05 18:07:46;;;;;;;4.05;1.30;;;;;;;3.01;100.00;98500.59;10319608;28;20499;-61
2022/02/05 18:12:52;;;;;;;4.13;1.40;;;;;;;2.98;100.00;98506.16;10318548;28;20046;-60
2022/02/05 18:17:55;;;;;;;3.90;1.40;;;;;;;3.06;100.00;98503.78;10324017;28;20050;-58
2022/02/05 18:23:00;;;;;;;3.85;1.20;;;;;;;3.06;100.00;98498.47;10323290;28;20043;-60
2022/02/05 18:28:03;;;;;;;2.95;1.20;;;;;;;3.13;100.00;98501.53;10327065;28;20061;-65
2022/02/05 18:33:07;;;;;;;4.50;1.50;;;;;;;3.09;100.00;98484.06;10324185;28;20034;-62
2022/02/05 18:38:13;;;;;;;5.25;1.60;;;;;;;3.08;100.00;98488.56;10320083;28;20418;-62
2022/02/05 18:43:16;;;;;;;4.93;1.40;;;;;;;3.05;100.00;98480.78;10328076;28;20125;-63
2022/02/05 18:48:19;;;;;;;3.30;1.40;;;;;;;3.06;100.00;98490.47;10333041;28;20042;-61
2022/02/05 18:53:24;;;;;;;2.63;1.27;;;;;;;3.12;100.00;98464.38;10329317;28;20050;-57
2022/02/05 18:58:26;;;;;;;3.47;1.38;;;;;;;3.08;100.00;98472.59;10331938;28;20554;-58
2022/02/05 19:14:26;;;;;;;2.70;1.13;;;;;;;3.07;100.00;98462.91;10344172;28;20407;-58
2022/02/05 19:19:30;;;;;;;5.07;1.40;;;;;;;3.10;100.00;98453.81;10338636;28;20337;-61
2022/02/05 19:24:35;;;;;;;3.10;1.30;;;;;;;3.06;100.00;98461.19;10341904;28;20068;-63
2022/02/05 19:29:38;;;;;;;4.78;1.70;;;;;;;3.04;100.00;98463.09;10346086;28;20053;-62
2022/02/05 19:34:41;;;;;;;3.70;1.45;;;;;;;3.14;100.00;98454.44;10334978;28;20132;-60
2022/02/05 19:39:46;;;;;;;5.30;1.52;;;;;;;3.12;100.00;98453.72;10339051;28;20433;-60
2022/02/05 19:44:51;;;;;;;3.22;1.45;;;;;;;3.11;100.00;98452.03;10347403;28;20034;-62
2022/02/05 19:49:56;;;;;;;2.92;1.30;;;;;;;3.07;100.00;98462.91;10350832;28;20050;-62
2022/02/05 19:55:00;;;;;;;4.60;1.42;;;;;;;3.11;100.00;98457.34;10354253;28;20038;-62
2022/02/05 20:00:05;;;;;;;4.68;1.50;;;;;;;3.09;100.00;98454.78;10332800;28;20050;-62
2022/02/05 20:05:19;;;;;;;4.22;1.60;;;;;;;3.08;100.00;98464.59;10324981;28;20549;-62
2022/02/05 20:10:24;;;;;;;7.43;1.58;;;;;;;3.12;100.00;98441.25;10325304;28;20133;-63
2022/02/05 20:15:27;;;;;;;5.13;1.80;;;;;;;3.14;100.00;98434.00;10337539;28;20044;-62
2022/02/05 20:20:32;;;;;;;5.32;1.52;;;;;;;3.14;100.00;98419.84;10338708;28;20051;-62
2022/02/05 20:25:40;;;;;;;3.35;1.40;;;;;;;3.22;100.00;98422.78;10331225;28;20046;-63
2022/02/05 20:30:50;;;;;;;3.60;1.55;;;;;;;3.23;100.00;98430.66;10332327;28;20546;-61
2022/02/05 20:35:55;;;;;;;4.07;1.50;;;;;;;3.23;100.00;98416.50;10337479;28;20043;-60
2022/02/05 20:40:59;;;;;;;5.32;1.70;;;;;;;3.24;100.00;98407.53;10329422;28;20050;-63
2022/02/05 20:46:02;;;;;;;3.67;1.45;;;;;;;3.19;100.00;98401.72;10334122;28;20049;-58
2022/02/05 20:51:12;;;;;;;4.15;1.60;;;;;;;3.16;100.00;98393.94;10335558;28;20045;-63
2022/02/05 20:56:24;;;;;;;3.40;1.45;;;;;;;3.18;100.00;98387.53;10333393;28;20042;-60
2022/02/05 21:01:33;;;;;;;4.55;1.30;;;;;;;3.21;100.00;98382.00;10337546;28;20046;-62
2022/02/05 21:06:38;;;;;;;3.90;1.50;;;;;;;3.23;100.00;98389.88;10343076;28;20053;-60
2022/02/05 21:11:45;;;;;;;3.33;1.30;;;;;;;3.24;100.00;98388.88;10337938;28;20832;-62
2022/02/05 21:16:53;;;;;;;4.82;1.60;;;;;;;3.27;100.00;98380.69;10344466;28;20519;-56
2022/02/05 21:21:59;;;;;;;3.20;1.40;;;;;;;3.23;100.00;98372.09;10343768;28;20533;-59
2022/02/05 21:27:14;;;;;;;3.72;1.55;;;;;;;3.28;100.00;98363.75;10349454;28;20380;-63
2022/02/05 21:32:24;;;;;;;3.75;1.30;;;;;;;3.33;100.00;98372.25;10339990;28;20711;-57
2022/02/05 21:37:30;;;;;;;4.13;1.30;;;;;;;3.41;100.00;98354.81;10345791;28;20073;-61
2022/02/05 21:42:36;;;;;;;3.53;1.25;;;;;;;3.35;100.00;98351.66;10348242;28;20501;-58
2022/02/05 21:47:40;;;;;;;3.22;1.23;;;;;;;3.38;100.00;98346.09;10339013;28;20145;-58
2022/02/05 21:52:49;;;;;;;2.45;1.30;;;;;;;3.35;100.00;98322.34;10329880;28;20045;-58
2022/02/05 21:57:59;;;;;;;4.18;1.40;;;;;;;3.36;100.00;98326.72;10319407;28;20070;-57
2022/02/05 22:03:09;;;;;;;3.22;1.35;;;;;;;3.35;100.00;98319.69;10328407;28;20116;-57
2022/02/05 22:08:13;;;;;;;4.23;1.13;;;;;;;3.33;100.00;98303.00;10325322;28;20407;-59
2022/02/05 22:13:18;;;;;;;7.97;1.92;;;;;;;3.31;100.00;98299.63;10324903;28;20206;-54
2022/02/05 22:18:21;;;;;;;3.40;1.38;;;;;;;3.33;100.00;98296.81;10329161;28;20777;-58
2022/02/05 22:23:27;;;;;;;2.88;1.15;;;;;;;3.34;100.00;98278.09;10333698;28;20046;-56
2022/02/05 22:28:32;;;;;;;6.15;1.58;;;;;;;3.30;100.00;98294.38;10324801;28;20876;-59
2022/02/05 22:33:35;;;;;;;2.83;1.02;;;;;;;3.27;100.00;98260.88;10335754;28;20137;-63
2022/02/05 22:38:38;;;;;;;2.95;1.20;;;;;;;3.29;100.00;98248.28;10334337;28;20101;-58
2022/02/05 22:43:42;;;;;;;4.93;1.40;;;;;;;3.30;100.00;98233.16;10338831;28;20564;-63
2022/02/05 22:48:46;;;;;;;4.57;1.33;;;;;;;3.26;100.00;98223.72;10334574;28;20059;-55
2022/02/05 22:53:49;;;;;;;3.85;1.60;;;;;;;3.26;100.00;98218.41;10339354;28;20872;-60
2022/02/05 22:58:55;;;;;;;3.60;1.42;;;;;;;3.24;100.00;98237.13;10339841;28;20052;-54
2022/02/05 23:03:59;;;;;;;4.70;1.40;;;;;;;3.20;100.00;98217.91;10341674;28;20076;-57
2022/02/05 23:09:08;;;;;;;3.28;1.20;;;;;;;3.21;100.00;98216.09;10341175;28;20137;-54
2022/02/05 23:14:25;;;;;;;3.90;1.30;;;;;;;3.17;100.00;98218.16;10338980;28;20077;-62
2022/02/05 23:30:26;;;;;;;5.57;1.40;;;;;;;3.23;100.00;98216.84;10305027;28;20041;-56
2022/02/05 23:40:58;;;;;;;5.43;1.47;;;;;;;3.16;100.00;98189.84;10333546;28;20058;-57
2022/02/05 23:46:05;;;;;;;4.82;1.30;;;;;;;3.18;100.00;98197.69;10328284;28;20042;-57
2022/02/05 23:51:09;;;;;;;4.25;1.40;;;;;;;3.24;100.00;98184.75;10325552;28;20450;-62
2022/02/05 23:56:13;;;;;;;5.55;1.20;;;;;;;3.36;100.00;98177.59;10326159;28;20046;-63
